Terminal Aerodrome Forecast
Issued by NWS

Home | Current Version | Previous Version | Text Only | Print | Product List | Glossary On
Versions: 1 2 3 4 5 6 7 8 9 10 11 12 13 14 15
000
FTUS46 KPDT 240500
TAFALW
TAF
KALW 240520Z 2406/2506 22012KT P6SM VCSH SCT040 BKN080
     FM240700 20010KT P6SM FEW080
     FM241300 20013KT P6SM BKN045
     FM241800 23017G24KT P6SM FEW060=

USA.gov is the U.S. government's official web portal to all federal, state and local government web resources and services.